sensor_id;sensor_type;location;lat;lon;timestamp;temperature;humidity
21035;DHT22;10676;50.848;3.272;2023-11-21T00:00:18;8.70;99.90
21035;DHT22;10676;50.848;3.272;2023-11-21T00:02:44;8.70;99.90
21035;DHT22;10676;50.848;3.272;2023-11-21T00:05:12;8.70;99.90
21035;DHT22;10676;50.848;3.272;2023-11-21T00:07:39;8.80;99.90
21035;DHT22;10676;50.848;3.272;2023-11-21T00:10:06;8.80;99.90
21035;DHT22;10676;50.848;3.272;2023-11-21T00:12:32;8.80;99.90
21035;DHT22;10676;50.848;3.272;2023-11-21T00:14:58;8.90;99.90
21035;DHT22;10676;50.848;3.272;2023-11-21T00:17:24;8.90;99.90
21035;DHT22;10676;50.848;3.272;2023-11-21T00:19:50;8.90;99.90
21035;DHT22;10676;50.848;3.272;2023-11-21T00:22:18;9.00;99.90
21035;DHT22;10676;50.848;3.272;2023-11-21T00:24:44;9.10;99.90
21035;DHT22;10676;50.848;3.272;2023-11-21T00:27:09;9.10;99.90
21035;DHT22;10676;50.848;3.272;2023-11-21T00:29:35;9.20;99.90
21035;DHT22;10676;50.848;3.272;2023-11-21T00:32:01;9.30;99.90
21035;DHT22;10676;50.848;3.272;2023-11-21T00:34:27;9.30;99.90
21035;DHT22;10676;50.848;3.272;2023-11-21T00:36:53;9.40;99.90
21035;DHT22;10676;50.848;3.272;2023-11-21T00:39:19;9.40;99.90
21035;DHT22;10676;50.848;3.272;2023-11-21T00:41:44;9.50;99.90
21035;DHT22;10676;50.848;3.272;2023-11-21T00:44:11;9.40;99.90
21035;DHT22;10676;50.848;3.272;2023-11-21T00:46:36;9.50;99.90
21035;DHT22;10676;50.848;3.272;2023-11-21T00:49:02;9.50;99.90
21035;DHT22;10676;50.848;3.272;2023-11-21T00:51:30;9.50;99.90
21035;DHT22;10676;50.848;3.272;2023-11-21T00:53:55;9.50;99.90
21035;DHT22;10676;50.848;3.272;2023-11-21T00:56:21;9.50;99.90
21035;DHT22;10676;50.848;3.272;2023-11-21T00:58:47;9.50;99.90
21035;DHT22;10676;50.848;3.272;2023-11-21T01:01:15;9.40;99.90
21035;DHT22;10676;50.848;3.272;2023-11-21T01:03:41;9.40;99.90
21035;DHT22;10676;50.848;3.272;2023-11-21T01:06:07;9.30;99.90
21035;DHT22;10676;50.848;3.272;2023-11-21T01:08:34;9.20;99.90
21035;DHT22;10676;50.848;3.272;2023-11-21T01:11:01;9.20;99.90
21035;DHT22;10676;50.848;3.272;2023-11-21T01:13:26;9.10;99.90
21035;DHT22;10676;50.848;3.272;2023-11-21T01:15:55;9.00;99.90
21035;DHT22;10676;50.848;3.272;2023-11-21T01:18:21;9.00;99.90
21035;DHT22;10676;50.848;3.272;2023-11-21T01:20:47;8.90;99.90
21035;DHT22;10676;50.848;3.272;2023-11-21T01:23:13;8.90;99.90
21035;DHT22;10676;50.848;3.272;2023-11-21T01:25:39;9.00;99.90
21035;DHT22;10676;50.848;3.272;2023-11-21T01:28:05;9.00;99.90
21035;DHT22;10676;50.848;3.272;2023-11-21T01:30:31;9.00;99.90
21035;DHT22;10676;50.848;3.272;2023-11-21T01:32:58;9.10;99.90
21035;DHT22;10676;50.848;3.272;2023-11-21T01:35:24;9.10;99.90
21035;DHT22;10676;50.848;3.272;2023-11-21T01:37:50;9.10;99.90
21035;DHT22;10676;50.848;3.272;2023-11-21T01:40:15;9.20;99.90
21035;DHT22;10676;50.848;3.272;2023-11-21T01:42:42;9.20;99.90
21035;DHT22;10676;50.848;3.272;2023-11-21T01:45:13;9.30;99.90
21035;DHT22;10676;50.848;3.272;2023-11-21T01:47:41;9.40;99.90
21035;DHT22;10676;50.848;3.272;2023-11-21T01:50:08;9.50;99.90
21035;DHT22;10676;50.848;3.272;2023-11-21T01:52:37;9.50;99.90
21035;DHT22;10676;50.848;3.272;2023-11-21T01:55:06;9.60;99.90
21035;DHT22;10676;50.848;3.272;2023-11-21T01:57:31;9.70;99.90
21035;DHT22;10676;50.848;3.272;2023-11-21T01:59:58;9.80;99.90
21035;DHT22;10676;50.848;3.272;2023-11-21T02:02:26;9.90;99.90
21035;DHT22;10676;50.848;3.272;2023-11-21T02:04:52;9.90;99.90
21035;DHT22;10676;50.848;3.272;2023-11-21T02:07:17;10.00;99.90
21035;DHT22;10676;50.848;3.272;2023-11-21T02:09:44;10.10;99.90
21035;DHT22;10676;50.848;3.272;2023-11-21T02:12:10;10.10;99.90
21035;DHT22;10676;50.848;3.272;2023-11-21T02:14:36;10.20;99.90
21035;DHT22;10676;50.848;3.272;2023-11-21T02:17:02;10.20;99.90
21035;DHT22;10676;50.848;3.272;2023-11-21T02:19:29;10.30;99.90
21035;DHT22;10676;50.848;3.272;2023-11-21T02:21:57;10.30;99.90
21035;DHT22;10676;50.848;3.272;2023-11-21T02:24:31;10.40;99.90
21035;DHT22;10676;50.848;3.272;2023-11-21T02:26:57;10.30;99.90
21035;DHT22;10676;50.848;3.272;2023-11-21T02:29:23;10.40;99.90
21035;DHT22;10676;50.848;3.272;2023-11-21T02:31:53;10.40;99.90
21035;DHT22;10676;50.848;3.272;2023-11-21T02:34:20;10.50;99.90
21035;DHT22;10676;50.848;3.272;2023-11-21T02:36:46;10.50;99.90
21035;DHT22;10676;50.848;3.272;2023-11-21T02:39:13;10.50;99.90
21035;DHT22;10676;50.848;3.272;2023-11-21T02:41:38;10.50;99.90
21035;DHT22;10676;50.848;3.272;2023-11-21T02:44:05;10.60;99.90
21035;DHT22;10676;50.848;3.272;2023-11-21T02:46:35;10.60;99.90
21035;DHT22;10676;50.848;3.272;2023-11-21T02:49:01;10.60;99.90
21035;DHT22;10676;50.848;3.272;2023-11-21T02:51:27;10.60;99.90
21035;DHT22;10676;50.848;3.272;2023-11-21T02:53:53;10.70;99.90
21035;DHT22;10676;50.848;3.272;2023-11-21T02:56:19;10.70;99.90
21035;DHT22;10676;50.848;3.272;2023-11-21T02:58:45;10.70;99.90
21035;DHT22;10676;50.848;3.272;2023-11-21T03:01:11;10.70;99.90
21035;DHT22;10676;50.848;3.272;2023-11-21T03:03:37;10.70;99.90
21035;DHT22;10676;50.848;3.272;2023-11-21T03:06:05;10.70;99.90
21035;DHT22;10676;50.848;3.272;2023-11-21T03:08:31;10.80;99.90
21035;DHT22;10676;50.848;3.272;2023-11-21T03:10:57;10.80;99.90
21035;DHT22;10676;50.848;3.272;2023-11-21T03:13:23;10.80;99.90
21035;DHT22;10676;50.848;3.272;2023-11-21T03:15:48;10.80;99.90
21035;DHT22;10676;50.848;3.272;2023-11-21T03:18:14;10.90;99.90
21035;DHT22;10676;50.848;3.272;2023-11-21T03:20:40;10.90;99.90
21035;DHT22;10676;50.848;3.272;2023-11-21T03:23:05;10.90;99.90
21035;DHT22;10676;50.848;3.272;2023-11-21T03:25:31;10.90;99.90
21035;DHT22;10676;50.848;3.272;2023-11-21T03:27:56;10.90;99.90
21035;DHT22;10676;50.848;3.272;2023-11-21T03:30:23;11.00;99.90
21035;DHT22;10676;50.848;3.272;2023-11-21T03:32:48;11.00;99.90
21035;DHT22;10676;50.848;3.272;2023-11-21T03:35:14;11.00;99.90
21035;DHT22;10676;50.848;3.272;2023-11-21T03:37:40;11.00;99.90
21035;DHT22;10676;50.848;3.272;2023-11-21T03:40:07;11.10;99.90
21035;DHT22;10676;50.848;3.272;2023-11-21T03:42:38;11.10;99.90
21035;DHT22;10676;50.848;3.272;2023-11-21T03:45:04;11.10;99.90
21035;DHT22;10676;50.848;3.272;2023-11-21T03:47:30;11.20;99.90
21035;DHT22;10676;50.848;3.272;2023-11-21T03:49:56;11.20;99.90
21035;DHT22;10676;50.848;3.272;2023-11-21T03:52:22;11.20;99.90
21035;DHT22;10676;50.848;3.272;2023-11-21T03:54:47;11.20;99.90
21035;DHT22;10676;50.848;3.272;2023-11-21T03:57:13;11.20;99.90
21035;DHT22;10676;50.848;3.272;2023-11-21T03:59:42;11.20;99.90
21035;DHT22;10676;50.848;3.272;2023-11-21T04:02:09;11.20;99.90
21035;DHT22;10676;50.848;3.272;2023-11-21T04:04:35;11.20;99.90
21035;DHT22;10676;50.848;3.272;2023-11-21T04:07:01;11.20;99.90
21035;DHT22;10676;50.848;3.272;2023-11-21T04:09:27;11.20;99.90
21035;DHT22;10676;50.848;3.272;2023-11-21T04:11:53;11.20;99.90
21035;DHT22;10676;50.848;3.272;2023-11-21T04:14:20;11.30;99.90
21035;DHT22;10676;50.848;3.272;2023-11-21T04:16:45;11.30;99.90
21035;DHT22;10676;50.848;3.272;2023-11-21T04:19:11;11.30;99.90
21035;DHT22;10676;50.848;3.272;2023-11-21T04:21:40;11.30;99.90
21035;DHT22;10676;50.848;3.272;2023-11-21T04:24:06;11.30;99.90
21035;DHT22;10676;50.848;3.272;2023-11-21T04:26:32;11.40;99.90
21035;DHT22;10676;50.848;3.272;2023-11-21T04:28:58;11.40;99.90
21035;DHT22;10676;50.848;3.272;2023-11-21T04:31:23;11.40;99.90
21035;DHT22;10676;50.848;3.272;2023-11-21T04:33:49;11.40;99.90
21035;DHT22;10676;50.848;3.272;2023-11-21T04:36:14;11.40;99.90
21035;DHT22;10676;50.848;3.272;2023-11-21T04:38:40;11.50;99.90
21035;DHT22;10676;50.848;3.272;2023-11-21T04:41:07;11.50;99.90
21035;DHT22;10676;50.848;3.272;2023-11-21T04:43:32;11.50;99.90
21035;DHT22;10676;50.848;3.272;2023-11-21T04:45:58;11.50;99.90
21035;DHT22;10676;50.848;3.272;2023-11-21T04:48:24;11.60;99.90
21035;DHT22;10676;50.848;3.272;2023-11-21T04:50:49;11.60;99.90
21035;DHT22;10676;50.848;3.272;2023-11-21T04:53:15;11.60;99.90
21035;DHT22;10676;50.848;3.272;2023-11-21T04:55:41;11.70;99.90
21035;DHT22;10676;50.848;3.272;2023-11-21T04:58:07;11.70;99.90
21035;DHT22;10676;50.848;3.272;2023-11-21T05:00:34;11.70;99.90
21035;DHT22;10676;50.848;3.272;2023-11-21T05:02:59;11.70;99.90
21035;DHT22;10676;50.848;3.272;2023-11-21T05:05:26;11.70;99.90
21035;DHT22;10676;50.848;3.272;2023-11-21T05:07:52;11.70;99.90
21035;DHT22;10676;50.848;3.272;2023-11-21T05:10:19;11.70;99.90
21035;DHT22;10676;50.848;3.272;2023-11-21T05:12:45;11.70;99.90
21035;DHT22;10676;50.848;3.272;2023-11-21T05:15:16;11.70;99.90
21035;DHT22;10676;50.848;3.272;2023-11-21T05:17:46;11.70;99.90
21035;DHT22;10676;50.848;3.272;2023-11-21T05:20:19;11.70;99.90
21035;DHT22;10676;50.848;3.272;2023-11-21T05:22:49;11.70;99.90
21035;DHT22;10676;50.848;3.272;2023-11-21T05:25:15;11.70;99.90
21035;DHT22;10676;50.848;3.272;2023-11-21T05:27:42;11.80;99.90
21035;DHT22;10676;50.848;3.272;2023-11-21T05:30:08;11.80;99.90
21035;DHT22;10676;50.848;3.272;2023-11-21T05:32:37;11.80;99.90
21035;DHT22;10676;50.848;3.272;2023-11-21T05:35:04;11.80;99.90
21035;DHT22;10676;50.848;3.272;2023-11-21T05:37:35;11.90;99.90
21035;DHT22;10676;50.848;3.272;2023-11-21T05:40:01;11.90;99.90
21035;DHT22;10676;50.848;3.272;2023-11-21T05:42:34;11.90;99.90
21035;DHT22;10676;50.848;3.272;2023-11-21T05:45:00;11.80;99.90
21035;DHT22;10676;50.848;3.272;2023-11-21T05:47:43;11.80;99.90
21035;DHT22;10676;50.848;3.272;2023-11-21T05:50:10;11.80;99.90
21035;DHT22;10676;50.848;3.272;2023-11-21T05:52:43;11.80;99.90
21035;DHT22;10676;50.848;3.272;2023-11-21T05:55:10;11.80;99.90
21035;DHT22;10676;50.848;3.272;2023-11-21T05:57:37;11.80;99.90
21035;DHT22;10676;50.848;3.272;2023-11-21T06:00:08;11.90;99.90
21035;DHT22;10676;50.848;3.272;2023-11-21T06:02:40;11.90;99.90
21035;DHT22;10676;50.848;3.272;2023-11-21T06:05:09;11.90;99.90
21035;DHT22;10676;50.848;3.272;2023-11-21T06:07:35;11.90;99.90
21035;DHT22;10676;50.848;3.272;2023-11-21T06:10:06;11.90;99.90
21035;DHT22;10676;50.848;3.272;2023-11-21T06:12:35;11.90;99.90
21035;DHT22;10676;50.848;3.272;2023-11-21T06:15:04;11.90;99.90
21035;DHT22;10676;50.848;3.272;2023-11-21T06:17:35;11.90;99.90
21035;DHT22;10676;50.848;3.272;2023-11-21T06:20:05;11.90;99.90
21035;DHT22;10676;50.848;3.272;2023-11-21T06:22:44;11.90;99.90
21035;DHT22;10676;50.848;3.272;2023-11-21T06:25:12;11.90;99.90
21035;DHT22;10676;50.848;3.272;2023-11-21T06:27:46;11.90;99.90
21035;DHT22;10676;50.848;3.272;2023-11-21T06:30:13;11.90;99.90
21035;DHT22;10676;50.848;3.272;2023-11-21T06:32:41;11.90;99.90
21035;DHT22;10676;50.848;3.272;2023-11-21T06:35:07;11.80;99.90
21035;DHT22;10676;50.848;3.272;2023-11-21T06:37:35;11.80;99.90
21035;DHT22;10676;50.848;3.272;2023-11-21T06:40:01;11.80;99.90
21035;DHT22;10676;50.848;3.272;2023-11-21T06:42:29;11.80;99.90
21035;DHT22;10676;50.848;3.272;2023-11-21T06:44:54;11.80;99.90
21035;DHT22;10676;50.848;3.272;2023-11-21T06:47:23;11.80;99.90
21035;DHT22;10676;50.848;3.272;2023-11-21T06:49:52;11.80;99.90
21035;DHT22;10676;50.848;3.272;2023-11-21T06:52:18;11.80;99.90
21035;DHT22;10676;50.848;3.272;2023-11-21T06:54:45;11.70;99.90
21035;DHT22;10676;50.848;3.272;2023-11-21T06:57:11;11.70;99.90
21035;DHT22;10676;50.848;3.272;2023-11-21T06:59:37;11.70;99.90
21035;DHT22;10676;50.848;3.272;2023-11-21T07:02:03;11.70;99.90
21035;DHT22;10676;50.848;3.272;2023-11-21T07:04:30;11.70;99.90
21035;DHT22;10676;50.848;3.272;2023-11-21T07:06:55;11.60;99.90
21035;DHT22;10676;50.848;3.272;2023-11-21T07:09:21;11.60;99.90
21035;DHT22;10676;50.848;3.272;2023-11-21T07:11:51;11.60;99.90
21035;DHT22;10676;50.848;3.272;2023-11-21T07:14:17;11.60;99.90
21035;DHT22;10676;50.848;3.272;2023-11-21T07:16:45;11.60;99.90
21035;DHT22;10676;50.848;3.272;2023-11-21T07:19:12;11.70;99.90
21035;DHT22;10676;50.848;3.272;2023-11-21T07:21:38;11.70;99.90
21035;DHT22;10676;50.848;3.272;2023-11-21T07:24:08;11.70;99.90
21035;DHT22;10676;50.848;3.272;2023-11-21T07:26:34;11.70;99.90
21035;DHT22;10676;50.848;3.272;2023-11-21T07:29:01;11.70;99.90
21035;DHT22;10676;50.848;3.272;2023-11-21T07:31:28;11.80;99.90
21035;DHT22;10676;50.848;3.272;2023-11-21T07:33:54;11.80;99.90
21035;DHT22;10676;50.848;3.272;2023-11-21T07:36:23;11.70;99.90
21035;DHT22;10676;50.848;3.272;2023-11-21T07:38:49;11.80;99.90
21035;DHT22;10676;50.848;3.272;2023-11-21T07:41:15;11.90;99.90
21035;DHT22;10676;50.848;3.272;2023-11-21T07:43:41;11.90;99.90
21035;DHT22;10676;50.848;3.272;2023-11-21T07:46:07;11.90;99.90
21035;DHT22;10676;50.848;3.272;2023-11-21T07:48:34;12.00;99.90
21035;DHT22;10676;50.848;3.272;2023-11-21T07:51:01;12.10;99.90
21035;DHT22;10676;50.848;3.272;2023-11-21T07:53:27;12.20;99.90
21035;DHT22;10676;50.848;3.272;2023-11-21T07:55:56;12.40;99.90
21035;DHT22;10676;50.848;3.272;2023-11-21T07:58:21;12.50;99.90
21035;DHT22;10676;50.848;3.272;2023-11-21T08:00:47;12.60;99.90
21035;DHT22;10676;50.848;3.272;2023-11-21T08:03:13;12.70;99.90
21035;DHT22;10676;50.848;3.272;2023-11-21T08:05:39;12.70;99.90
21035;DHT22;10676;50.848;3.272;2023-11-21T08:08:05;12.70;99.90
21035;DHT22;10676;50.848;3.272;2023-11-21T08:10:31;12.70;99.90
21035;DHT22;10676;50.848;3.272;2023-11-21T08:12:57;12.70;99.90
21035;DHT22;10676;50.848;3.272;2023-11-21T08:15:22;12.70;99.90
21035;DHT22;10676;50.848;3.272;2023-11-21T08:17:48;12.60;99.90
21035;DHT22;10676;50.848;3.272;2023-11-21T08:20:14;12.70;99.90
21035;DHT22;10676;50.848;3.272;2023-11-21T08:22:44;12.70;99.90
21035;DHT22;10676;50.848;3.272;2023-11-21T08:25:09;12.60;99.90
21035;DHT22;10676;50.848;3.272;2023-11-21T08:27:35;12.70;99.90
21035;DHT22;10676;50.848;3.272;2023-11-21T08:30:02;12.60;99.90
21035;DHT22;10676;50.848;3.272;2023-11-21T08:32:29;12.70;99.90
21035;DHT22;10676;50.848;3.272;2023-11-21T08:34:57;12.70;99.90
21035;DHT22;10676;50.848;3.272;2023-11-21T08:37:23;12.80;99.90
21035;DHT22;10676;50.848;3.272;2023-11-21T08:39:49;12.90;99.90
21035;DHT22;10676;50.848;3.272;2023-11-21T08:42:15;12.90;99.90
21035;DHT22;10676;50.848;3.272;2023-11-21T08:44:41;13.00;99.90
21035;DHT22;10676;50.848;3.272;2023-11-21T08:47:07;13.00;99.90
21035;DHT22;10676;50.848;3.272;2023-11-21T08:49:34;13.00;99.90
21035;DHT22;10676;50.848;3.272;2023-11-21T08:52:00;13.00;99.90
21035;DHT22;10676;50.848;3.272;2023-11-21T08:54:26;13.00;99.90
21035;DHT22;10676;50.848;3.272;2023-11-21T08:56:52;13.00;99.90
21035;DHT22;10676;50.848;3.272;2023-11-21T08:59:18;13.20;99.90
21035;DHT22;10676;50.848;3.272;2023-11-21T09:01:45;13.40;99.90
21035;DHT22;10676;50.848;3.272;2023-11-21T09:04:12;13.60;99.90
21035;DHT22;10676;50.848;3.272;2023-11-21T09:06:39;13.90;99.90
21035;DHT22;10676;50.848;3.272;2023-11-21T09:09:07;14.10;99.90
21035;DHT22;10676;50.848;3.272;2023-11-21T09:11:34;14.30;99.90
21035;DHT22;10676;50.848;3.272;2023-11-21T09:14:02;14.60;99.90
21035;DHT22;10676;50.848;3.272;2023-11-21T09:16:31;15.20;99.90
21035;DHT22;10676;50.848;3.272;2023-11-21T09:18:58;16.10;99.90
21035;DHT22;10676;50.848;3.272;2023-11-21T09:21:24;17.20;99.90
21035;DHT22;10676;50.848;3.272;2023-11-21T09:23:51;18.20;99.90
21035;DHT22;10676;50.848;3.272;2023-11-21T09:26:16;19.10;99.90
21035;DHT22;10676;50.848;3.272;2023-11-21T09:28:44;19.90;99.90
21035;DHT22;10676;50.848;3.272;2023-11-21T09:31:13;20.60;99.90
21035;DHT22;10676;50.848;3.272;2023-11-21T09:33:42;21.10;99.90
21035;DHT22;10676;50.848;3.272;2023-11-21T09:36:12;21.50;99.90
21035;DHT22;10676;50.848;3.272;2023-11-21T09:38:41;21.80;99.90
21035;DHT22;10676;50.848;3.272;2023-11-21T09:41:21;22.10;99.90
21035;DHT22;10676;50.848;3.272;2023-11-21T09:43:57;22.50;99.90
21035;DHT22;10676;50.848;3.272;2023-11-21T09:46:28;22.20;99.90
21035;DHT22;10676;50.848;3.272;2023-11-21T09:48:58;21.60;99.90
21035;DHT22;10676;50.848;3.272;2023-11-21T09:51:27;20.80;99.90
21035;DHT22;10676;50.848;3.272;2023-11-21T09:53:57;20.10;99.90
21035;DHT22;10676;50.848;3.272;2023-11-21T09:56:25;19.90;99.90
21035;DHT22;10676;50.848;3.272;2023-11-21T09:58:53;19.80;99.90
21035;DHT22;10676;50.848;3.272;2023-11-21T10:01:21;19.50;99.90
21035;DHT22;10676;50.848;3.272;2023-11-21T10:03:48;19.00;99.90
21035;DHT22;10676;50.848;3.272;2023-11-21T10:06:14;18.50;99.90
21035;DHT22;10676;50.848;3.272;2023-11-21T10:08:41;18.50;99.90
21035;DHT22;10676;50.848;3.272;2023-11-21T10:11:11;18.50;99.90
21035;DHT22;10676;50.848;3.272;2023-11-21T10:13:37;18.50;99.90
21035;DHT22;10676;50.848;3.272;2023-11-21T10:16:05;18.20;99.90
21035;DHT22;10676;50.848;3.272;2023-11-21T10:18:33;17.90;99.90
21035;DHT22;10676;50.848;3.272;2023-11-21T10:21:00;17.50;99.90
21035;DHT22;10676;50.848;3.272;2023-11-21T10:23:26;17.20;99.90
21035;DHT22;10676;50.848;3.272;2023-11-21T10:25:52;16.90;99.90
21035;DHT22;10676;50.848;3.272;2023-11-21T10:28:18;16.60;99.90
21035;DHT22;10676;50.848;3.272;2023-11-21T10:30:46;16.30;99.90
21035;DHT22;10676;50.848;3.272;2023-11-21T10:33:11;16.00;99.90
21035;DHT22;10676;50.848;3.272;2023-11-21T10:35:48;15.60;99.90
21035;DHT22;10676;50.848;3.272;2023-11-21T10:38:20;15.20;99.90
21035;DHT22;10676;50.848;3.272;2023-11-21T10:40:51;14.80;99.90
21035;DHT22;10676;50.848;3.272;2023-11-21T10:43:17;14.50;99.90
21035;DHT22;10676;50.848;3.272;2023-11-21T10:45:44;14.30;99.90
21035;DHT22;10676;50.848;3.272;2023-11-21T10:48:12;14.20;99.90
21035;DHT22;10676;50.848;3.272;2023-11-21T10:50:41;14.20;99.90
21035;DHT22;10676;50.848;3.272;2023-11-21T10:53:07;14.10;99.90
21035;DHT22;10676;50.848;3.272;2023-11-21T10:55:33;14.10;99.90
21035;DHT22;10676;50.848;3.272;2023-11-21T10:58:02;14.10;99.90
21035;DHT22;10676;50.848;3.272;2023-11-21T11:00:30;14.10;99.90
21035;DHT22;10676;50.848;3.272;2023-11-21T11:02:56;14.10;99.90
21035;DHT22;10676;50.848;3.272;2023-11-21T11:05:24;14.10;99.90
21035;DHT22;10676;50.848;3.272;2023-11-21T11:07:58;14.10;99.90
21035;DHT22;10676;50.848;3.272;2023-11-21T11:10:28;14.20;99.90
21035;DHT22;10676;50.848;3.272;2023-11-21T11:12:56;14.20;99.90
21035;DHT22;10676;50.848;3.272;2023-11-21T11:15:23;14.40;99.90
21035;DHT22;10676;50.848;3.272;2023-11-21T11:17:49;14.50;99.90
21035;DHT22;10676;50.848;3.272;2023-11-21T11:20:16;14.70;99.90
21035;DHT22;10676;50.848;3.272;2023-11-21T11:25:24;15.00;99.90
21035;DHT22;10676;50.848;3.272;2023-11-21T11:28:10;15.30;99.90
21035;DHT22;10676;50.848;3.272;2023-11-21T11:36:22;15.60;99.90
21035;DHT22;10676;50.848;3.272;2023-11-21T11:38:48;15.60;99.90
21035;DHT22;10676;50.848;3.272;2023-11-21T11:41:28;15.60;99.90
21035;DHT22;10676;50.848;3.272;2023-11-21T11:43:56;15.60;99.90
21035;DHT22;10676;50.848;3.272;2023-11-21T11:46:43;15.70;99.90
21035;DHT22;10676;50.848;3.272;2023-11-21T11:49:23;15.90;99.90
21035;DHT22;10676;50.848;3.272;2023-11-21T11:54:55;16.90;99.90
21035;DHT22;10676;50.848;3.272;2023-11-21T11:57:24;17.10;99.90
21035;DHT22;10676;50.848;3.272;2023-11-21T12:02:51;17.10;99.90
21035;DHT22;10676;50.848;3.272;2023-11-21T12:05:19;17.20;99.90
21035;DHT22;10676;50.848;3.272;2023-11-21T12:07:51;17.10;99.90
21035;DHT22;10676;50.848;3.272;2023-11-21T12:10:21;16.90;99.90
21035;DHT22;10676;50.848;3.272;2023-11-21T12:12:51;16.90;99.90
21035;DHT22;10676;50.848;3.272;2023-11-21T12:15:18;16.80;99.90
21035;DHT22;10676;50.848;3.272;2023-11-21T12:17:45;16.80;99.90
21035;DHT22;10676;50.848;3.272;2023-11-21T12:20:16;16.80;99.90
21035;DHT22;10676;50.848;3.272;2023-11-21T12:22:45;16.70;99.90
21035;DHT22;10676;50.848;3.272;2023-11-21T12:27:43;16.30;99.90
21035;DHT22;10676;50.848;3.272;2023-11-21T12:30:10;16.40;99.90
21035;DHT22;10676;50.848;3.272;2023-11-21T12:32:39;16.50;99.90
21035;DHT22;10676;50.848;3.272;2023-11-21T12:35:08;16.60;99.90
21035;DHT22;10676;50.848;3.272;2023-11-21T12:37:39;16.70;99.90
21035;DHT22;10676;50.848;3.272;2023-11-21T12:40:06;16.60;99.90
21035;DHT22;10676;50.848;3.272;2023-11-21T12:42:34;16.60;99.90
21035;DHT22;10676;50.848;3.272;2023-11-21T12:47:42;16.40;99.90
21035;DHT22;10676;50.848;3.272;2023-11-21T12:50:08;16.30;99.90
21035;DHT22;10676;50.848;3.272;2023-11-21T12:52:43;16.10;99.90
21035;DHT22;10676;50.848;3.272;2023-11-21T12:55:24;16.00;99.90
21035;DHT22;10676;50.848;3.272;2023-11-21T12:57:53;16.00;99.90
21035;DHT22;10676;50.848;3.272;2023-11-21T13:00:32;15.80;99.90
21035;DHT22;10676;50.848;3.272;2023-11-21T13:03:03;15.70;99.90
21035;DHT22;10676;50.848;3.272;2023-11-21T13:05:37;15.50;99.90
21035;DHT22;10676;50.848;3.272;2023-11-21T13:08:08;15.40;99.90
21035;DHT22;10676;50.848;3.272;2023-11-21T13:10:37;15.40;99.90
21035;DHT22;10676;50.848;3.272;2023-11-21T13:13:05;15.40;99.90
21035;DHT22;10676;50.848;3.272;2023-11-21T13:15:38;15.40;99.90
21035;DHT22;10676;50.848;3.272;2023-11-21T13:18:06;15.40;99.90
21035;DHT22;10676;50.848;3.272;2023-11-21T13:20:32;15.30;99.90
21035;DHT22;10676;50.848;3.272;2023-11-21T13:22:59;15.20;99.90
21035;DHT22;10676;50.848;3.272;2023-11-21T13:25:29;15.10;99.90
21035;DHT22;10676;50.848;3.272;2023-11-21T13:27:57;15.20;99.90
21035;DHT22;10676;50.848;3.272;2023-11-21T13:30:27;15.20;99.90
21035;DHT22;10676;50.848;3.272;2023-11-21T13:32:59;15.20;99.90
21035;DHT22;10676;50.848;3.272;2023-11-21T13:35:30;15.30;99.90
21035;DHT22;10676;50.848;3.272;2023-11-21T13:38:06;15.40;99.90
21035;DHT22;10676;50.848;3.272;2023-11-21T13:40:33;15.40;99.90
21035;DHT22;10676;50.848;3.272;2023-11-21T13:43:00;15.40;99.90
21035;DHT22;10676;50.848;3.272;2023-11-21T13:45:29;15.50;99.90
21035;DHT22;10676;50.848;3.272;2023-11-21T13:47:56;15.50;99.90
21035;DHT22;10676;50.848;3.272;2023-11-21T13:50:28;15.60;99.90
21035;DHT22;10676;50.848;3.272;2023-11-21T13:53:03;15.70;99.90
21035;DHT22;10676;50.848;3.272;2023-11-21T13:55:44;15.70;99.90
21035;DHT22;10676;50.848;3.272;2023-11-21T13:58:12;15.80;99.90
21035;DHT22;10676;50.848;3.272;2023-11-21T14:00:43;15.70;99.90
21035;DHT22;10676;50.848;3.272;2023-11-21T14:03:13;15.60;99.90
21035;DHT22;10676;50.848;3.272;2023-11-21T14:05:47;15.40;99.90
21035;DHT22;10676;50.848;3.272;2023-11-21T14:08:20;15.30;99.90
21035;DHT22;10676;50.848;3.272;2023-11-21T14:10:47;15.10;99.90
21035;DHT22;10676;50.848;3.272;2023-11-21T14:13:23;15.00;99.90
21035;DHT22;10676;50.848;3.272;2023-11-21T14:15:50;14.90;99.90
21035;DHT22;10676;50.848;3.272;2023-11-21T14:18:19;14.80;99.90
21035;DHT22;10676;50.848;3.272;2023-11-21T14:20:52;14.80;99.90
21035;DHT22;10676;50.848;3.272;2023-11-21T14:23:18;14.80;99.90
21035;DHT22;10676;50.848;3.272;2023-11-21T14:25:44;14.90;99.90
21035;DHT22;10676;50.848;3.272;2023-11-21T14:28:09;14.90;99.90
21035;DHT22;10676;50.848;3.272;2023-11-21T14:30:38;14.90;99.90
21035;DHT22;10676;50.848;3.272;2023-11-21T14:33:05;14.90;99.90
21035;DHT22;10676;50.848;3.272;2023-11-21T14:35:31;14.90;99.90
21035;DHT22;10676;50.848;3.272;2023-11-21T14:37:58;14.90;99.90
21035;DHT22;10676;50.848;3.272;2023-11-21T14:40:25;14.80;99.90
21035;DHT22;10676;50.848;3.272;2023-11-21T14:42:51;14.80;99.90
21035;DHT22;10676;50.848;3.272;2023-11-21T14:45:21;14.80;99.90
21035;DHT22;10676;50.848;3.272;2023-11-21T14:47:48;14.80;99.90
21035;DHT22;10676;50.848;3.272;2023-11-21T14:50:43;14.80;99.90
21035;DHT22;10676;50.848;3.272;2023-11-21T14:53:26;14.70;99.90
21035;DHT22;10676;50.848;3.272;2023-11-21T14:56:11;14.70;99.90
21035;DHT22;10676;50.848;3.272;2023-11-21T14:58:43;14.60;99.90
21035;DHT22;10676;50.848;3.272;2023-11-21T15:01:08;14.50;99.90
21035;DHT22;10676;50.848;3.272;2023-11-21T15:03:36;14.40;99.90
21035;DHT22;10676;50.848;3.272;2023-11-21T15:06:15;14.30;99.90
21035;DHT22;10676;50.848;3.272;2023-11-21T15:08:56;14.20;99.90
21035;DHT22;10676;50.848;3.272;2023-11-21T15:11:45;14.10;99.90
21035;DHT22;10676;50.848;3.272;2023-11-21T15:14:12;13.90;99.90
21035;DHT22;10676;50.848;3.272;2023-11-21T15:16:45;13.80;99.90
21035;DHT22;10676;50.848;3.272;2023-11-21T15:19:16;13.60;99.90
21035;DHT22;10676;50.848;3.272;2023-11-21T15:21:44;13.50;99.90
21035;DHT22;10676;50.848;3.272;2023-11-21T15:24:11;13.40;99.90
21035;DHT22;10676;50.848;3.272;2023-11-21T15:26:37;13.20;99.90
21035;DHT22;10676;50.848;3.272;2023-11-21T15:29:03;13.10;99.90
21035;DHT22;10676;50.848;3.272;2023-11-21T15:31:29;13.00;99.90
21035;DHT22;10676;50.848;3.272;2023-11-21T15:33:55;12.90;99.90
21035;DHT22;10676;50.848;3.272;2023-11-21T15:36:25;12.70;99.90
21035;DHT22;10676;50.848;3.272;2023-11-21T15:38:52;12.60;99.90
21035;DHT22;10676;50.848;3.272;2023-11-21T15:41:18;12.50;99.90
21035;DHT22;10676;50.848;3.272;2023-11-21T15:43:44;12.30;99.90
21035;DHT22;10676;50.848;3.272;2023-11-21T15:46:10;12.20;99.90
21035;DHT22;10676;50.848;3.272;2023-11-21T15:48:36;12.10;99.90
21035;DHT22;10676;50.848;3.272;2023-11-21T15:51:04;12.00;99.90
21035;DHT22;10676;50.848;3.272;2023-11-21T15:53:30;11.90;99.90
21035;DHT22;10676;50.848;3.272;2023-11-21T15:55:57;11.80;99.90